Time;durP1;ratioP1;P1;durP2;ratioP2;P2;SDS_P1;SDS_P2;PMS_P1;PMS_P2;Temp;Humidity;BMP_temperature;BMP_pressure;BME280_temperature;BME280_humidity;BME280_pressure;Samples;Min_cycle;Max_cycle;Signal;HPM_P1;HPM_P2
2021/11/21 00:00:39;;;;;;;6.22;3.20;;;;;;;4.52;66.21;100454.77;1829366;77;21463;-73
2021/11/21 00:03:07;;;;;;;4.58;2.52;;;;;;;4.52;66.03;100448.73;1833039;78;21124;-73
2021/11/21 00:05:34;;;;;;;5.58;3.15;;;;;;;4.47;65.98;100450.21;1833038;78;21496;-71
2021/11/21 00:08:02;;;;;;;8.53;4.40;;;;;;;4.43;66.02;100458.17;1832928;77;20919;-73
2021/11/21 00:10:33;;;;;;;8.68;4.50;;;;;;;4.38;66.12;100453.16;1832969;78;20962;-72
2021/11/21 00:12:57;;;;;;;4.92;3.22;;;;;;;4.32;66.22;100453.38;1832898;77;21376;-73
2021/11/21 00:15:24;;;;;;;9.35;4.62;;;;;;;4.27;66.42;100461.77;1833388;78;21484;-73
2021/11/21 00:17:51;;;;;;;12.07;5.47;;;;;;;4.20;66.56;100463.73;1833002;78;20922;-73
2021/11/21 00:20:20;;;;;;;8.60;5.12;;;;;;;4.15;66.80;100473.44;1833111;77;20967;-73
2021/11/21 00:22:46;;;;;;;7.97;4.05;;;;;;;4.10;67.04;100475.36;1834350;77;20880;-74
2021/11/21 00:25:14;;;;;;;6.97;3.27;;;;;;;4.07;67.24;100472.86;1833923;77;20829;-73
2021/11/21 00:27:41;;;;;;;9.60;3.62;;;;;;;4.03;67.55;100466.11;1833043;78;21532;-74
2021/11/21 00:30:08;;;;;;;8.40;4.60;;;;;;;4.02;67.88;100466.99;1833158;77;20907;-73
2021/11/21 00:32:35;;;;;;;12.50;6.85;;;;;;;4.02;68.13;100469.12;1833367;77;20907;-72
2021/11/21 00:35:02;;;;;;;15.78;7.50;;;;;;;4.03;68.28;100462.22;1833341;76;21361;-73
2021/11/21 00:37:29;;;;;;;12.50;8.10;;;;;;;4.05;68.35;100464.31;1832916;77;20904;-73
2021/11/21 00:39:56;;;;;;;12.40;6.28;;;;;;;4.06;68.36;100462.94;1833328;77;21471;-73
2021/11/21 00:42:24;;;;;;;14.07;7.65;;;;;;;4.07;68.37;100466.37;1832860;78;20919;-73
2021/11/21 00:44:51;;;;;;;17.65;9.35;;;;;;;4.06;68.39;100464.23;1833199;77;20958;-72
2021/11/21 00:47:18;;;;;;;13.93;8.40;;;;;;;4.05;68.35;100469.50;1832821;78;21841;-73
2021/11/21 00:49:45;;;;;;;12.03;6.75;;;;;;;4.01;68.37;100470.05;1833130;78;21385;-73
2021/11/21 00:52:13;;;;;;;15.93;6.45;;;;;;;3.97;68.45;100471.05;1832925;78;21150;-72
2021/11/21 00:54:53;;;;;;;9.90;4.65;;;;;;;3.91;68.53;100465.64;1832928;77;20915;-73
2021/11/21 00:57:20;;;;;;;10.58;4.72;;;;;;;3.88;68.65;100465.73;1832945;78;20915;-72
2021/11/21 00:59:47;;;;;;;9.80;4.65;;;;;;;3.84;68.79;100465.44;1832870;77;20876;-72
2021/11/21 01:02:14;;;;;;;14.58;5.80;;;;;;;3.82;68.99;100466.39;1832806;78;20844;-74
2021/11/21 01:04:42;;;;;;;10.00;5.90;;;;;;;3.81;69.23;100469.90;1790832;78;21157;-72
2021/11/21 01:07:10;;;;;;;13.28;4.92;;;;;;;3.82;69.42;100478.06;1833161;78;20994;-73
2021/11/21 01:09:39;;;;;;;17.15;6.67;;;;;;;3.82;69.54;100477.61;1832840;77;20903;-73
2021/11/21 01:12:07;;;;;;;16.97;7.08;;;;;;;3.84;69.68;100472.38;1833073;78;21465;-72
2021/11/21 01:14:34;;;;;;;18.87;7.25;;;;;;;3.85;69.69;100471.03;1833114;78;20982;-73
2021/11/21 01:17:01;;;;;;;16.60;8.58;;;;;;;3.87;69.65;100467.10;1832928;77;21130;-72
2021/11/21 01:19:28;;;;;;;22.42;10.13;;;;;;;3.87;69.53;100468.40;1833211;78;20974;-72
2021/11/21 01:21:55;;;;;;;27.10;12.90;;;;;;;3.84;69.44;100466.73;1833062;77;20856;-72
2021/11/21 01:24:22;;;;;;;29.80;14.55;;;;;;;3.81;69.35;100460.37;1833198;78;20962;-73
2021/11/21 01:26:49;;;;;;;34.67;18.80;;;;;;;3.78;69.27;100460.48;1833218;78;21482;-72
2021/11/21 01:29:16;;;;;;;40.25;18.52;;;;;;;3.72;69.20;100445.97;1833523;77;21111;-73
2021/11/21 01:31:47;;;;;;;41.55;19.82;;;;;;;3.70;69.12;100448.22;1833107;78;20923;-73
2021/11/21 01:34:11;;;;;;;40.28;19.35;;;;;;;3.67;69.17;100454.36;1833173;76;20908;-71
2021/11/21 01:36:38;;;;;;;38.30;22.45;;;;;;;3.66;69.25;100462.19;1833195;78;20873;-73
2021/11/21 01:39:05;;;;;;;42.38;21.48;;;;;;;3.64;69.32;100457.04;1833378;78;20848;-72
2021/11/21 01:41:32;;;;;;;44.63;23.20;;;;;;;3.64;69.42;100455.74;1833094;78;21153;-72
2021/11/21 01:43:59;;;;;;;53.85;26.62;;;;;;;3.66;69.41;100455.25;1833414;78;20935;-72
2021/11/21 01:46:37;;;;;;;51.73;28.90;;;;;;;3.70;69.31;100454.70;1833038;77;21330;-72
2021/11/21 01:49:05;;;;;;;50.98;28.73;;;;;;;3.72;69.18;100451.61;1833310;78;20891;-73
2021/11/21 01:51:34;;;;;;;46.30;28.07;;;;;;;3.72;68.99;100457.64;1833296;77;20880;-72
2021/11/21 01:54:01;;;;;;;49.45;23.47;;;;;;;3.69;68.90;100451.27;1833151;78;21497;-72
2021/11/21 01:56:27;;;;;;;34.67;18.30;;;;;;;3.66;68.74;100448.77;1833117;78;20868;-72
2021/11/21 01:58:55;;;;;;;24.02;12.63;;;;;;;3.61;68.69;100443.35;1833208;77;20836;-72
2021/11/21 02:01:22;;;;;;;17.75;9.43;;;;;;;3.55;68.72;100446.14;1830149;78;20923;-73
2021/11/21 02:03:49;;;;;;;17.15;8.65;;;;;;;3.50;68.86;100449.73;1827044;78;21349;-73
2021/11/21 02:06:16;;;;;;;15.78;7.20;;;;;;;3.46;68.98;100457.21;1826913;78;21960;-74
2021/11/21 02:08:43;;;;;;;14.07;6.10;;;;;;;3.44;69.19;100464.64;1827293;78;20951;-72
2021/11/21 02:11:10;;;;;;;16.65;7.25;;;;;;;3.43;69.41;100469.45;1827003;78;20868;-73
2021/11/21 02:13:36;;;;;;;16.23;7.65;;;;;;;3.40;69.61;100470.40;1827136;78;20869;-72
2021/11/21 02:16:04;;;;;;;18.32;8.08;;;;;;;3.42;69.79;100476.35;1827006;78;20900;-71
2021/11/21 02:18:31;;;;;;;18.40;6.28;;;;;;;3.41;69.84;100479.02;1827079;78;21036;-71
2021/11/21 02:20:59;;;;;;;15.95;7.00;;;;;;;3.39;69.82;100473.88;1826803;78;20943;-72
2021/11/21 02:23:26;;;;;;;16.42;7.17;;;;;;;3.37;69.82;100476.12;1827348;78;20903;-72
2021/11/21 02:25:52;;;;;;;15.95;6.55;;;;;;;3.32;69.88;100474.52;1827289;78;20856;-73
2021/11/21 02:28:19;;;;;;;11.88;5.65;;;;;;;3.29;69.96;100472.03;1827360;78;20971;-72
2021/11/21 02:30:46;;;;;;;12.82;5.42;;;;;;;3.26;70.04;100473.87;1826866;77;21950;-73
2021/11/21 02:33:17;;;;;;;11.22;4.80;;;;;;;3.20;70.14;100472.34;1826841;78;20876;-73
2021/11/21 02:35:48;;;;;;;11.50;5.90;;;;;;;3.16;70.33;100471.16;1826995;77;21377;-71
2021/11/21 02:38:17;;;;;;;9.60;4.05;;;;;;;3.13;70.58;100469.52;1827122;77;20923;-72
2021/11/21 02:40:47;;;;;;;8.55;3.87;;;;;;;3.11;70.72;100473.90;1827093;78;20907;-72
2021/11/21 02:43:17;;;;;;;8.00;4.87;;;;;;;3.08;70.83;100468.83;1827364;78;21112;-73
2021/11/21 02:45:45;;;;;;;9.08;3.70;;;;;;;3.08;71.01;100465.78;1826812;78;21014;-72
2021/11/21 02:48:15;;;;;;;8.68;4.17;;;;;;;3.09;71.08;100465.33;1826965;77;20962;-72
2021/11/21 02:50:42;;;;;;;11.35;5.25;;;;;;;3.09;71.15;100475.69;1807035;78;20923;-71
2021/11/21 02:53:09;;;;;;;14.38;5.28;;;;;;;3.09;71.18;100482.16;1826925;78;21407;-72
2021/11/21 02:55:36;;;;;;;12.03;4.78;;;;;;;3.08;71.26;100481.33;1827035;77;21734;-72
2021/11/21 02:58:04;;;;;;;15.18;6.35;;;;;;;3.05;71.34;100487.06;1827143;77;20923;-73
2021/11/21 03:00:33;;;;;;;17.05;7.10;;;;;;;3.04;71.38;100491.37;1826926;78;20919;-72
2021/11/21 03:03:01;;;;;;;12.60;5.92;;;;;;;3.03;71.56;100496.17;1826868;78;20931;-73
2021/11/21 03:05:28;;;;;;;13.68;6.00;;;;;;;3.01;71.78;100491.48;1827005;78;21373;-72
2021/11/21 03:07:55;;;;;;;17.05;8.40;;;;;;;3.03;71.97;100494.03;1827003;78;21716;-72
2021/11/21 03:10:22;;;;;;;15.50;6.67;;;;;;;3.04;72.14;100485.36;1827071;78;20872;-72
2021/11/21 03:12:53;;;;;;;18.70;5.50;;;;;;;3.06;72.23;100483.56;1826959;78;20896;-72
2021/11/21 03:15:21;;;;;;;15.58;5.35;;;;;;;3.08;72.22;100479.19;1826834;78;20877;-72
2021/11/21 03:17:48;;;;;;;12.65;5.12;;;;;;;3.08;72.18;100480.48;1827057;78;20907;-72
2021/11/21 03:20:26;;;;;;;12.23;3.92;;;;;;;3.07;72.18;100493.05;1826779;78;21089;-72
2021/11/21 03:22:54;;;;;;;16.82;5.40;;;;;;;3.04;72.22;100491.37;1826838;78;20954;-71
2021/11/21 03:25:21;;;;;;;12.78;3.65;;;;;;;3.00;72.24;100489.80;1827168;78;20958;-72
2021/11/21 03:27:48;;;;;;;7.17;3.20;;;;;;;2.97;72.24;100486.45;1826884;78;20915;-72
2021/11/21 03:30:18;;;;;;;10.28;4.28;;;;;;;2.96;72.33;100487.33;1827232;78;20884;-74
2021/11/21 03:32:45;;;;;;;8.25;3.42;;;;;;;2.93;72.44;100490.86;1826706;77;21336;-72
2021/11/21 03:35:11;;;;;;;10.95;4.53;;;;;;;2.93;72.58;100488.27;1827147;78;20852;-71
2021/11/21 03:37:38;;;;;;;8.58;3.83;;;;;;;2.93;72.68;100479.66;1826950;77;20966;-71
2021/11/21 03:40:07;;;;;;;12.65;4.22;;;;;;;2.94;72.77;100480.08;1827078;77;20912;-73
2021/11/21 03:42:34;;;;;;;12.75;4.87;;;;;;;2.96;72.78;100489.91;1826892;78;20833;-72
2021/11/21 03:45:01;;;;;;;9.25;3.67;;;;;;;2.97;72.78;100484.70;1827070;78;21078;-72
2021/11/21 03:47:28;;;;;;;11.33;4.33;;;;;;;2.97;72.70;100493.77;1826986;77;21354;-72
2021/11/21 03:49:55;;;;;;;9.20;3.83;;;;;;;2.97;72.66;100490.33;1827020;77;20856;-73
2021/11/21 03:52:22;;;;;;;15.70;4.87;;;;;;;2.94;72.63;100493.03;1826830;78;20939;-70
2021/11/21 03:54:49;;;;;;;10.45;4.80;;;;;;;2.90;72.63;100490.52;1827054;78;20998;-73
2021/11/21 03:57:16;;;;;;;10.95;3.70;;;;;;;2.87;72.64;100491.91;1826899;77;21121;-71
2021/11/21 03:59:44;;;;;;;10.70;4.58;;;;;;;2.83;72.66;100487.72;1826763;78;20837;-71
2021/11/21 04:02:10;;;;;;;11.10;4.75;;;;;;;2.80;72.76;100494.72;1830028;77;20935;-72
2021/11/21 04:04:38;;;;;;;10.25;4.33;;;;;;;2.76;72.87;100493.11;1833010;78;20888;-72
2021/11/21 04:07:05;;;;;;;8.65;4.45;;;;;;;2.73;73.07;100483.69;1833018;77;20895;-72
2021/11/21 04:09:34;;;;;;;13.03;4.17;;;;;;;2.72;73.10;100485.05;1832907;78;20825;-73
2021/11/21 04:12:00;;;;;;;14.25;4.75;;;;;;;2.67;73.14;100476.97;1833030;78;20915;-73
2021/11/21 04:14:29;;;;;;;15.00;4.33;;;;;;;2.62;73.14;100479.28;1833024;77;21452;-73
2021/11/21 04:16:56;;;;;;;13.50;4.30;;;;;;;2.57;73.21;100482.46;1833148;78;20879;-73
2021/11/21 04:19:22;;;;;;;9.15;3.45;;;;;;;2.52;73.29;100485.19;1833355;78;20837;-74
2021/11/21 04:21:49;;;;;;;8.33;3.27;;;;;;;2.46;73.50;100476.30;1832934;78;21553;-73
2021/11/21 04:24:16;;;;;;;10.85;3.33;;;;;;;2.43;73.65;100475.94;1833228;77;21444;-72
2021/11/21 04:26:44;;;;;;;12.73;3.00;;;;;;;2.41;73.79;100479.02;1833018;78;20955;-73
2021/11/21 04:29:12;;;;;;;14.60;4.15;;;;;;;2.38;73.88;100475.66;1833138;77;20963;-73
2021/11/21 04:31:39;;;;;;;10.15;3.90;;;;;;;2.34;73.90;100477.95;1832959;78;21440;-73
2021/11/21 04:34:07;;;;;;;5.92;2.77;;;;;;;2.30;73.96;100477.19;1833176;78;21109;-73
2021/11/21 04:36:34;;;;;;;5.33;2.87;;;;;;;2.26;74.13;100476.86;1832968;77;20868;-72
2021/11/21 04:39:00;;;;;;;5.70;2.65;;;;;;;2.24;74.26;100474.30;1833318;76;20959;-73
2021/11/21 04:41:28;;;;;;;6.00;2.80;;;;;;;2.21;74.43;100465.35;1832896;78;20871;-72
2021/11/21 04:43:55;;;;;;;8.55;2.75;;;;;;;2.20;74.62;100467.97;1833229;78;21369;-72
2021/11/21 04:46:21;;;;;;;11.10;3.02;;;;;;;2.22;74.93;100472.66;1832897;77;21985;-73
2021/11/21 04:48:48;;;;;;;9.15;3.62;;;;;;;2.22;75.13;100477.84;1779462;78;20962;-74
2021/11/21 04:51:16;;;;;;;8.40;3.30;;;;;;;2.25;75.26;100474.73;1833000;77;20868;-72
2021/11/21 04:53:43;;;;;;;14.33;4.22;;;;;;;2.26;75.19;100470.39;1833166;78;20958;-73
2021/11/21 04:56:09;;;;;;;11.60;3.37;;;;;;;2.27;75.20;100468.23;1832912;78;20997;-72
2021/11/21 04:58:36;;;;;;;8.75;3.47;;;;;;;2.26;75.22;100463.92;1833123;78;21103;-74
2021/11/21 05:01:03;;;;;;;14.65;4.12;;;;;;;2.25;75.15;100467.42;1832903;77;20912;-74
2021/11/21 05:03:30;;;;;;;13.22;5.22;;;;;;;2.25;75.16;100476.48;1832771;77;20939;-74
2021/11/21 05:05:57;;;;;;;11.93;2.98;;;;;;;2.23;75.25;100473.08;1832882;77;20935;-74
2021/11/21 05:08:24;;;;;;;8.88;2.58;;;;;;;2.21;75.47;100477.45;1833142;77;21338;-74
2021/11/21 05:10:51;;;;;;;9.88;3.45;;;;;;;2.20;75.72;100476.61;1833000;77;21169;-74
2021/11/21 05:16:04;;;;;;;13.38;3.08;;;;;;;2.26;76.03;100480.29;1884044;75;22409;-75
2021/11/21 05:18:31;;;;;;;12.13;3.95;;;;;;;2.24;76.07;100483.36;1860871;76;21396;-75
2021/11/21 05:20:58;;;;;;;8.75;3.45;;;;;;;2.27;76.08;100492.81;1860831;77;21126;-73
2021/11/21 05:23:27;;;;;;;15.23;6.17;;;;;;;2.26;76.10;100490.64;1860678;77;20994;-74
2021/11/21 05:25:54;;;;;;;10.68;3.75;;;;;;;2.27;76.10;100484.59;1860687;77;20864;-73
2021/11/21 05:28:21;;;;;;;16.75;3.67;;;;;;;2.30;76.20;100486.69;1859537;77;20902;-72
2021/11/21 05:30:49;;;;;;;11.68;3.75;;;;;;;2.33;76.33;100494.36;1859220;77;20929;-72
2021/11/21 05:33:16;;;;;;;16.05;5.12;;;;;;;2.36;76.48;100496.88;1858870;77;21856;-73
2021/11/21 05:35:43;;;;;;;20.20;7.65;;;;;;;2.41;76.59;100495.00;1859139;77;20838;-74
2021/11/21 05:38:10;;;;;;;23.15;7.92;;;;;;;2.47;76.65;100494.37;1859093;77;20889;-74
2021/11/21 05:40:37;;;;;;;24.35;9.45;;;;;;;2.56;76.69;100496.31;1859210;77;20924;-72
2021/11/21 05:43:04;;;;;;;27.40;11.22;;;;;;;2.67;76.59;100500.73;1858987;77;20908;-75
2021/11/21 05:45:31;;;;;;;20.02;10.18;;;;;;;2.76;76.46;100499.58;1858866;76;21146;-74
2021/11/21 05:47:59;;;;;;;20.23;8.38;;;;;;;2.85;76.25;100512.28;1858972;77;20917;-73
2021/11/21 05:50:26;;;;;;;17.77;8.23;;;;;;;2.91;76.04;100500.42;1859208;76;21362;-74
2021/11/21 05:52:54;;;;;;;18.07;5.40;;;;;;;2.98;75.88;100500.66;1858854;76;20865;-75
2021/11/21 05:55:21;;;;;;;23.65;6.42;;;;;;;3.07;75.73;100511.19;1858844;76;20905;-75
2021/11/21 05:57:50;;;;;;;18.12;6.22;;;;;;;3.13;75.49;100500.61;1858957;77;21072;-74
2021/11/21 06:00:21;;;;;;;20.17;7.72;;;;;;;3.19;75.36;100508.66;1859149;77;21517;-74
2021/11/21 06:02:47;;;;;;;23.20;8.18;;;;;;;3.23;75.26;100505.91;1858812;77;20956;-74
2021/11/21 06:05:15;;;;;;;23.70;8.13;;;;;;;3.30;75.19;100507.86;1859155;77;20869;-74
2021/11/21 06:07:43;;;;;;;24.47;9.60;;;;;;;3.37;74.93;100517.13;1858976;76;20908;-75
2021/11/21 06:10:10;;;;;;;20.10;9.63;;;;;;;3.44;74.71;100513.44;1859052;77;21135;-74
2021/11/21 06:12:37;;;;;;;26.85;8.33;;;;;;;3.51;74.57;100515.38;1858587;77;20967;-74
2021/11/21 06:15:07;;;;;;;25.90;9.75;;;;;;;3.56;74.36;100515.23;1858800;77;20878;-74
2021/11/21 06:17:34;;;;;;;24.35;9.60;;;;;;;3.59;74.21;100516.45;1858862;77;20885;-76
2021/11/21 06:20:01;;;;;;;29.02;10.93;;;;;;;3.62;74.19;100515.88;1859275;77;20956;-75
2021/11/21 06:22:28;;;;;;;24.10;10.75;;;;;;;3.66;74.32;100516.19;1858794;76;21098;-75
2021/11/21 06:24:55;;;;;;;30.90;10.63;;;;;;;3.71;74.40;100518.20;1859216;77;21368;-74
2021/11/21 06:27:22;;;;;;;26.65;12.68;;;;;;;3.74;74.41;100515.48;1858438;77;20834;-73
2021/11/21 06:29:49;;;;;;;26.70;12.45;;;;;;;3.80;74.42;100518.34;1858656;77;20866;-74
2021/11/21 06:32:16;;;;;;;27.62;15.05;;;;;;;3.85;74.29;100529.86;1858352;76;20866;-74
2021/11/21 06:34:43;;;;;;;28.15;15.75;;;;;;;3.87;74.17;100512.04;1858072;76;21125;-76
2021/11/21 06:37:10;;;;;;;33.73;16.42;;;;;;;3.89;73.96;100505.05;1858272;77;20862;-74
2021/11/21 06:39:40;;;;;;;30.08;14.50;;;;;;;3.88;73.83;100502.05;1858228;76;20956;-74
2021/11/21 06:42:10;;;;;;;25.97;12.37;;;;;;;3.89;73.81;100506.34;1858345;77;20976;-75
2021/11/21 06:44:38;;;;;;;26.65;14.50;;;;;;;3.91;73.81;100508.87;1827283;77;20928;-74
2021/11/21 06:47:05;;;;;;;21.70;11.93;;;;;;;3.94;73.91;100506.19;1858270;77;21359;-75
2021/11/21 06:49:32;;;;;;;22.58;11.68;;;;;;;3.99;74.01;100502.98;1857918;77;20996;-75
2021/11/21 06:51:59;;;;;;;35.35;15.05;;;;;;;4.03;74.02;100499.38;1858183;76;20972;-76
2021/11/21 06:54:26;;;;;;;26.20;15.70;;;;;;;4.07;74.09;100500.10;1858184;77;21058;-75
2021/11/21 06:56:53;;;;;;;29.45;15.80;;;;;;;4.10;74.33;100498.26;1858315;76;20917;-83
2021/11/21 06:59:20;;;;;;;24.02;15.35;;;;;;;4.13;74.31;100491.65;1827544;77;21174;-83
2021/11/21 07:01:47;;;;;;;23.05;15.05;;;;;;;4.17;74.09;100493.70;1858428;77;21414;-81
2021/11/21 07:04:14;;;;;;;24.30;11.50;;;;;;;4.19;74.00;100488.46;1858502;77;20937;-81
2021/11/21 07:06:43;;;;;;;27.50;13.10;;;;;;;4.23;73.98;100483.56;1858344;76;20917;-82
2021/11/21 07:09:14;;;;;;;27.80;12.55;;;;;;;4.26;74.09;100475.66;1858236;77;20897;-81
2021/11/21 07:11:44;;;;;;;22.00;13.18;;;;;;;4.34;74.17;100483.56;1858207;76;20854;-81
2021/11/21 07:14:12;;;;;;;24.82;14.05;;;;;;;4.42;74.12;100477.23;1858472;77;20877;-81
2021/11/21 07:16:49;;;;;;;23.75;14.13;;;;;;;4.47;74.14;100472.28;1861341;77;20933;-81
2021/11/21 07:19:16;;;;;;;20.62;14.00;;;;;;;4.54;74.11;100468.55;1861863;77;20987;-82
2021/11/21 07:21:44;;;;;;;23.85;14.90;;;;;;;4.60;74.06;100472.64;1861608;77;20881;-82
2021/11/21 07:24:12;;;;;;;24.60;13.48;;;;;;;4.65;74.03;100471.20;1861529;77;21222;-81
2021/11/21 07:26:39;;;;;;;27.65;14.05;;;;;;;4.71;73.98;100462.72;1861507;77;21443;-79
2021/11/21 07:29:06;;;;;;;22.35;11.63;;;;;;;4.75;73.92;100472.52;1862099;77;20862;-80
2021/11/21 07:31:34;;;;;;;27.10;11.85;;;;;;;4.78;74.04;100466.77;1861627;77;20941;-81
2021/11/21 07:34:02;;;;;;;23.70;12.73;;;;;;;4.84;74.15;100476.52;1861930;77;20905;-82
2021/11/21 07:36:30;;;;;;;32.03;13.98;;;;;;;4.93;74.24;100465.31;1861591;77;21094;-80
2021/11/21 07:38:57;;;;;;;27.73;14.13;;;;;;;5.02;74.12;100464.56;1861776;77;20826;-80
2021/11/21 07:41:23;;;;;;;30.12;16.62;;;;;;;5.09;74.07;100451.72;1861606;77;20873;-81
2021/11/21 07:43:50;;;;;;;28.95;15.35;;;;;;;5.16;73.99;100457.92;1862258;77;20944;-81
2021/11/21 07:46:17;;;;;;;26.73;15.08;;;;;;;5.23;73.90;100457.68;1861726;77;20933;-82
2021/11/21 07:48:44;;;;;;;25.05;13.20;;;;;;;5.27;73.74;100456.63;1861959;77;21133;-83
2021/11/21 07:51:11;;;;;;;21.75;12.00;;;;;;;5.29;73.61;100453.08;1861670;77;20936;-81
2021/11/21 07:53:39;;;;;;;22.02;10.63;;;;;;;5.31;73.56;100449.94;1861876;77;20885;-79
2021/11/21 07:56:06;;;;;;;19.85;8.85;;;;;;;5.32;73.55;100443.00;1861777;77;21363;-82
2021/11/21 07:58:33;;;;;;;21.50;9.48;;;;;;;5.29;73.71;100437.91;1862157;77;20869;-83
2021/11/21 08:01:00;;;;;;;15.60;7.12;;;;;;;5.27;74.05;100424.13;1862614;77;21115;-81
2021/11/21 08:03:29;;;;;;;13.32;7.37;;;;;;;5.28;74.26;100426.67;1861826;77;20938;-81
2021/11/21 08:05:56;;;;;;;11.25;6.83;;;;;;;5.31;74.43;100419.20;1861222;77;20881;-81
2021/11/21 08:08:23;;;;;;;17.00;8.93;;;;;;;5.38;74.60;100424.09;1861829;77;21382;-80
2021/11/21 08:10:52;;;;;;;16.90;7.65;;;;;;;5.46;74.77;100404.72;1862028;77;20968;-80
2021/11/21 08:13:20;;;;;;;13.20;7.53;;;;;;;5.51;74.74;100421.80;1861741;77;21390;-82
2021/11/21 08:15:47;;;;;;;20.08;9.48;;;;;;;5.59;74.79;100411.09;1860263;77;20893;-81
2021/11/21 08:18:15;;;;;;;22.42;10.30;;;;;;;5.63;74.87;100408.75;1858693;77;21307;-83
2021/11/21 08:20:42;;;;;;;14.28;7.05;;;;;;;5.69;74.89;100415.43;1858488;77;20913;-82
2021/11/21 08:23:09;;;;;;;11.25;6.97;;;;;;;5.77;74.94;100415.49;1858869;76;20884;-81
2021/11/21 08:25:36;;;;;;;15.43;7.17;;;;;;;5.88;74.91;100418.09;1859713;77;21098;-82
2021/11/21 08:28:04;;;;;;;23.05;12.40;;;;;;;5.98;74.86;100417.66;1858765;77;21304;-82
2021/11/21 08:30:35;;;;;;;16.40;7.40;;;;;;;6.08;74.69;100430.27;1859306;77;20842;-81
2021/11/21 08:33:00;;;;;;;14.30;7.87;;;;;;;6.18;74.45;100428.48;1858612;76;20885;-83
2021/11/21 08:35:28;;;;;;;21.33;8.58;;;;;;;6.30;74.33;100418.43;1858565;76;21049;-83
2021/11/21 08:37:55;;;;;;;12.43;7.95;;;;;;;6.41;74.12;100420.92;1858776;77;21203;-82
2021/11/21 08:40:22;;;;;;;17.48;7.55;;;;;;;6.52;73.94;100423.03;1858146;76;20956;-80
2021/11/21 08:42:49;;;;;;;17.87;7.10;;;;;;;6.66;73.86;100408.52;1858330;76;20886;-80
2021/11/21 08:45:16;;;;;;;17.25;8.38;;;;;;;6.76;73.61;100395.42;1858207;76;21326;-81
2021/11/21 08:47:43;;;;;;;12.40;6.70;;;;;;;6.87;73.41;100391.88;1858665;77;20861;-78
2021/11/21 08:50:10;;;;;;;18.48;9.33;;;;;;;6.98;73.12;100389.58;1858512;77;21158;-75
2021/11/21 08:52:37;;;;;;;13.40;6.15;;;;;;;7.08;72.95;100386.52;1858338;77;20984;-77
2021/11/21 08:55:05;;;;;;;23.65;10.43;;;;;;;7.18;72.81;100402.08;1858222;77;21320;-77
2021/11/21 08:57:32;;;;;;;23.73;10.13;;;;;;;7.30;72.64;100399.34;1858341;77;21284;-76
2021/11/21 09:00:04;;;;;;;14.35;7.60;;;;;;;7.39;72.33;100397.58;1858487;77;20905;-75
2021/11/21 09:02:27;;;;;;;12.20;7.30;;;;;;;7.48;72.23;100400.55;1857972;76;21133;-72
2021/11/21 09:04:54;;;;;;;14.73;6.92;;;;;;;7.60;71.98;100404.76;1858179;77;20861;-74
2021/11/21 09:07:21;;;;;;;17.60;8.20;;;;;;;7.71;71.81;100415.49;1858112;77;20968;-74
2021/11/21 09:09:51;;;;;;;18.23;7.50;;;;;;;7.82;71.67;100424.91;1858157;76;21410;-73
2021/11/21 09:12:18;;;;;;;14.15;7.28;;;;;;;7.94;71.47;100424.76;1858183;77;21434;-73
2021/11/21 09:14:46;;;;;;;17.02;8.33;;;;;;;8.06;71.37;100437.63;1858063;77;21143;-72
2021/11/21 09:17:12;;;;;;;15.20;7.83;;;;;;;8.15;71.02;100428.47;1861117;77;20897;-74
2021/11/21 09:19:40;;;;;;;16.55;7.65;;;;;;;8.22;70.86;100421.52;1861450;77;20952;-71
2021/11/21 09:22:07;;;;;;;14.20;7.85;;;;;;;8.30;70.65;100427.66;1861448;77;20960;-74
2021/11/21 09:24:34;;;;;;;18.60;8.98;;;;;;;8.34;70.47;100424.39;1861324;77;20901;-74
2021/11/21 09:27:01;;;;;;;17.02;9.60;;;;;;;8.37;70.40;100414.63;1861379;77;21126;-75
2021/11/21 09:29:28;;;;;;;17.52;9.95;;;;;;;8.39;70.39;100411.48;1861194;77;20967;-74
2021/11/21 09:31:56;;;;;;;17.55;9.65;;;;;;;8.43;70.38;100408.28;1861461;77;20975;-74
2021/11/21 09:34:23;;;;;;;18.75;10.50;;;;;;;8.48;70.46;100408.39;1861347;77;20822;-74
2021/11/21 09:36:50;;;;;;;18.37;11.53;;;;;;;8.52;70.50;100409.08;1861502;77;20968;-75
2021/11/21 09:39:17;;;;;;;17.48;9.98;;;;;;;8.54;70.52;100407.22;1861535;77;21541;-74
2021/11/21 09:41:44;;;;;;;17.92;11.25;;;;;;;8.57;70.68;100407.52;1861488;77;21533;-74
2021/11/21 09:44:11;;;;;;;22.10;12.35;;;;;;;8.63;70.93;100403.27;1861510;77;20964;-74
2021/11/21 09:46:38;;;;;;;22.10;12.85;;;;;;;8.71;70.84;100404.97;1861807;77;20928;-74
2021/11/21 09:49:07;;;;;;;16.07;12.35;;;;;;;8.77;70.73;100395.95;1861494;77;20912;-74
2021/11/21 09:51:33;;;;;;;23.40;13.30;;;;;;;8.80;70.80;100391.38;1861885;77;22035;-76
2021/11/21 09:54:00;;;;;;;20.60;14.50;;;;;;;8.81;70.92;100393.55;1835535;77;20933;-75
2021/11/21 09:56:28;;;;;;;19.40;12.95;;;;;;;8.82;71.09;100396.05;1861614;77;21406;-74
2021/11/21 09:58:57;;;;;;;16.48;13.13;;;;;;;8.81;71.21;100378.70;1861326;77;21807;-74
2021/11/21 10:01:40;;;;;;;23.60;11.83;;;;;;;8.83;71.41;100387.77;1862074;77;20925;-74
2021/11/21 10:04:09;;;;;;;17.90;12.05;;;;;;;8.84;71.61;100378.51;1861739;77;21477;-74
2021/11/21 10:06:44;;;;;;;21.15;13.80;;;;;;;8.90;71.75;100392.55;1861797;77;20885;-74
2021/11/21 10:09:08;;;;;;;18.65;13.58;;;;;;;8.95;71.83;100395.38;1860894;77;20971;-74
2021/11/21 10:12:00;;;;;;;19.40;12.95;;;;;;;8.96;72.22;100390.06;1861861;77;21365;-73
2021/11/21 10:14:28;;;;;;;20.82;15.03;;;;;;;8.97;72.88;100389.59;1861875;77;21453;-73
2021/11/21 10:16:55;;;;;;;21.23;14.35;;;;;;;8.96;73.32;100386.59;1861365;77;21149;-73
2021/11/21 10:19:22;;;;;;;21.85;14.78;;;;;;;8.96;73.71;100391.81;1861504;77;20870;-73
2021/11/21 10:21:58;;;;;;;23.57;16.10;;;;;;;8.96;74.12;100381.36;1862028;77;21446;-76
2021/11/21 10:24:28;;;;;;;25.77;17.90;;;;;;;8.96;74.61;100382.22;1861513;77;20870;-73
2021/11/21 10:27:08;;;;;;;19.05;14.10;;;;;;;9.02;75.04;100381.01;1861559;77;20856;-75
2021/11/21 10:29:44;;;;;;;26.42;16.07;;;;;;;9.08;75.39;100374.96;1861427;77;21150;-73
2021/11/21 10:32:26;;;;;;;26.68;14.87;;;;;;;9.17;75.62;100371.45;1861643;77;20956;-73
2021/11/21 10:34:59;;;;;;;22.27;16.42;;;;;;;9.25;75.81;100361.35;1836008;77;20881;-74
2021/11/21 10:37:37;;;;;;;28.70;18.00;;;;;;;9.35;75.73;100357.27;1861948;77;20853;-74
2021/11/21 10:40:13;;;;;;;26.17;16.55;;;;;;;9.45;75.60;100361.48;1861566;77;20984;-75
2021/11/21 10:42:42;;;;;;;25.40;16.65;;;;;;;9.57;75.14;100363.39;1861809;77;21107;-76
2021/11/21 10:45:11;;;;;;;27.40;17.15;;;;;;;9.67;74.56;100367.15;1861742;77;20968;-74
2021/11/21 10:47:51;;;;;;;20.52;14.78;;;;;;;9.80;74.39;100359.84;1861588;77;20948;-73
2021/11/21 10:50:33;;;;;;;21.35;15.25;;;;;;;9.92;73.81;100373.03;1861431;77;21351;-74
2021/11/21 10:53:07;;;;;;;24.10;15.35;;;;;;;10.03;72.79;100355.83;1861438;77;20920;-74
2021/11/21 10:55:36;;;;;;;27.48;14.43;;;;;;;10.06;72.43;100336.81;1861510;77;22159;-75
2021/11/21 10:58:15;;;;;;;23.12;16.23;;;;;;;10.06;72.23;100343.36;1861342;77;20874;-72
2021/11/21 11:00:43;;;;;;;24.15;16.48;;;;;;;10.00;71.95;100336.35;1861065;77;20904;-73
2021/11/21 11:03:21;;;;;;;19.12;13.88;;;;;;;9.90;72.26;100338.71;1861341;77;20955;-74
2021/11/21 11:05:48;;;;;;;20.85;13.62;;;;;;;9.82;72.40;100362.73;1861863;77;20945;-75
2021/11/21 11:08:26;;;;;;;15.78;12.53;;;;;;;9.75;72.55;100360.95;1861569;77;21985;-78
2021/11/21 11:10:53;;;;;;;14.68;10.98;;;;;;;9.71;72.84;100369.09;1861092;77;21442;-76
2021/11/21 11:13:23;;;;;;;17.85;11.48;;;;;;;9.68;73.06;100362.75;1861494;77;20944;-74
2021/11/21 11:15:50;;;;;;;25.15;16.25;;;;;;;9.65;73.20;100355.05;1860959;77;20936;-72
2021/11/21 11:18:17;;;;;;;16.07;11.08;;;;;;;9.63;73.27;100355.64;1858142;77;20889;-73
2021/11/21 11:20:49;;;;;;;15.83;12.20;;;;;;;9.60;73.39;100349.27;1858252;77;21084;-73
2021/11/21 11:23:20;;;;;;;19.85;13.60;;;;;;;9.55;73.50;100342.52;1858192;76;20905;-78
2021/11/21 11:25:48;;;;;;;14.83;12.30;;;;;;;9.54;73.54;100334.78;1858297;77;20996;-78
2021/11/21 11:28:26;;;;;;;17.62;13.18;;;;;;;9.55;73.62;100335.14;1858537;77;21373;-79
2021/11/21 11:30:54;;;;;;;17.70;12.40;;;;;;;9.57;73.70;100329.83;1858257;77;20896;-80